createdAt,value
2022-09-07T00:00:49.688Z,87.90
2022-09-07T00:01:04.790Z,88.00
2022-09-07T00:02:04.777Z,86.99
2022-09-07T00:03:04.814Z,87.09
2022-09-07T00:04:04.789Z,86.89
2022-09-07T00:05:04.736Z,87.60
2022-09-07T00:06:04.770Z,87.70
2022-09-07T00:08:40.727Z,87.60
2022-09-07T00:08:45.572Z,86.58
2022-09-07T00:09:45.527Z,85.98
2022-09-07T00:10:45.536Z,86.18
2022-09-07T00:11:45.550Z,87.09
2022-09-07T00:12:45.505Z,86.18
2022-09-07T00:13:45.508Z,88.50
2022-09-07T00:14:45.505Z,86.18
2022-09-07T00:15:45.576Z,86.29
2022-09-07T00:16:45.479Z,86.49
2022-09-07T00:17:45.442Z,86.49
2022-09-07T00:18:46.468Z,87.90
2022-09-07T00:19:45.426Z,87.49
2022-09-07T00:20:45.416Z,86.89
2022-09-07T00:21:45.461Z,86.08
2022-09-07T00:22:45.423Z,86.38
2022-09-07T00:23:45.393Z,86.29
2022-09-07T00:24:45.393Z,86.29
2022-09-07T00:25:45.382Z,85.78
2022-09-07T00:26:45.388Z,85.58
2022-09-07T00:27:45.350Z,86.58
2022-09-07T00:28:45.370Z,85.38
2022-09-07T00:29:45.340Z,85.78
2022-09-07T00:30:45.324Z,86.58
2022-09-07T00:31:45.363Z,86.79
2022-09-07T00:32:45.304Z,87.09
2022-09-07T00:33:45.279Z,87.29
2022-09-07T00:34:49.492Z,86.79
2022-09-07T00:35:45.256Z,86.58
2022-09-07T00:36:45.269Z,87.70
2022-09-07T00:37:45.266Z,87.49
2022-09-07T00:38:45.242Z,88.50
2022-09-07T00:39:45.300Z,88.10
2022-09-07T00:40:45.225Z,87.80
2022-09-07T00:41:45.191Z,88.24
2022-09-07T00:42:45.192Z,88.54
2022-09-07T00:43:45.201Z,88.65
2022-09-07T00:44:46.182Z,88.34
2022-09-07T00:45:45.146Z,87.43
2022-09-07T00:46:45.205Z,87.74
2022-09-07T00:47:45.166Z,87.63
2022-09-07T00:48:45.147Z,88.24
2022-09-07T00:49:45.107Z,88.04
2022-09-07T00:50:45.111Z,88.14
2022-09-07T00:51:45.087Z,88.45
2022-09-07T00:52:45.083Z,89.45
2022-09-07T00:53:45.120Z,89.35
2022-09-07T00:54:45.070Z,89.95
2022-09-07T00:55:45.051Z,90.26
2022-09-07T00:56:45.050Z,90.26
2022-09-07T00:57:45.033Z,90.56
2022-09-07T00:58:45.066Z,91.06
2022-09-07T00:59:45.006Z,90.77
2022-09-07T01:00:45.012Z,91.17
2022-09-07T01:01:45.155Z,91.51
2022-09-07T01:02:45.109Z,92.18
2022-09-07T01:03:44.986Z,91.97
2022-09-07T01:04:44.979Z,91.91
2022-09-07T01:05:44.957Z,92.52
2022-09-07T01:06:44.933Z,92.12
2022-09-07T01:07:44.908Z,92.42
2022-09-07T01:10:52.169Z,92.32
2022-09-07T01:10:57.048Z,91.82
2022-09-07T01:11:56.997Z,91.61
2022-09-07T01:12:56.991Z,92.42
2022-09-07T01:13:56.995Z,92.02
2022-09-07T01:14:56.952Z,92.72
2022-09-07T01:15:57.014Z,92.58
2022-09-07T01:16:56.934Z,92.42
2022-09-07T01:17:56.943Z,92.22
2022-09-07T01:18:56.925Z,92.72
2022-09-07T01:19:56.937Z,92.78
2022-09-07T01:20:56.898Z,93.08
2022-09-07T01:21:56.891Z,92.68
2022-09-07T01:22:56.881Z,92.27
2022-09-07T01:23:56.880Z,91.97
2022-09-07T01:24:56.899Z,92.98
2022-09-07T01:25:56.860Z,92.98
2022-09-07T01:26:56.828Z,92.78
2022-09-07T01:27:56.840Z,93.18
2022-09-07T01:28:56.814Z,93.08
2022-09-07T01:29:56.839Z,92.58
2022-09-07T01:30:56.858Z,92.68
2022-09-07T01:31:56.811Z,91.87
2022-09-07T01:32:56.802Z,92.07
2022-09-07T01:33:56.765Z,92.18
2022-09-07T01:34:56.761Z,92.58
2022-09-07T01:35:56.789Z,92.98
2022-09-07T01:36:56.749Z,92.47
2022-09-07T01:37:57.239Z,92.68
2022-09-07T01:38:56.723Z,92.07
2022-09-07T01:39:56.911Z,92.27
2022-09-07T01:40:56.726Z,92.47
2022-09-07T01:41:56.701Z,91.47
2022-09-07T01:42:56.675Z,92.58
2022-09-07T01:43:56.674Z,91.97
2022-09-07T01:44:56.643Z,92.38
2022-09-07T01:45:56.714Z,91.57
2022-09-07T01:46:56.628Z,90.66
2022-09-07T01:47:56.622Z,91.87
2022-09-07T01:48:56.608Z,92.27
2022-09-07T01:52:02.051Z,92.27
2022-09-07T01:52:06.907Z,91.67
2022-09-07T01:53:06.886Z,90.77
2022-09-07T01:54:06.901Z,91.17
2022-09-07T01:55:06.896Z,91.06
2022-09-07T01:56:06.851Z,91.27
2022-09-07T01:57:06.841Z,91.47
2022-09-07T01:58:06.839Z,90.77
2022-09-07T01:59:06.810Z,90.16
2022-09-07T02:00:06.852Z,90.56
2022-09-07T02:01:06.800Z,89.05
2022-09-07T02:02:06.866Z,89.15
2022-09-07T02:03:06.825Z,89.61
2022-09-07T02:04:06.765Z,90.11
2022-09-07T02:05:06.761Z,90.01
2022-09-07T02:06:06.756Z,90.01
2022-09-07T02:07:06.718Z,90.01
2022-09-07T02:08:06.739Z,90.01
2022-09-07T02:10:09.447Z,90.62
2022-09-07T02:10:14.298Z,90.36
2022-09-07T02:11:14.253Z,89.45
2022-09-07T02:12:14.268Z,90.06
2022-09-07T02:13:14.236Z,90.86
2022-09-07T02:14:14.239Z,90.97
2022-09-07T02:15:14.237Z,89.75
2022-09-07T02:16:14.252Z,89.55
2022-09-07T02:17:14.183Z,89.55
2022-09-07T02:18:14.204Z,90.66
2022-09-07T02:19:14.164Z,90.97
2022-09-07T02:20:14.171Z,90.56
2022-09-07T02:21:14.148Z,90.77
2022-09-07T02:22:14.158Z,91.37
2022-09-07T02:23:14.115Z,91.06
2022-09-07T02:24:14.131Z,90.66
2022-09-07T02:25:14.122Z,90.97
2022-09-07T02:26:14.109Z,91.06
2022-09-07T02:27:14.087Z,90.46
2022-09-07T02:29:16.323Z,90.86
2022-09-07T02:29:21.154Z,91.37
2022-09-07T02:30:21.204Z,89.25
2022-09-07T02:31:21.232Z,90.36
2022-09-07T02:32:21.130Z,90.77
2022-09-07T02:33:21.125Z,89.55
2022-09-07T02:34:21.131Z,90.46
2022-09-07T02:35:21.124Z,90.86
2022-09-07T02:36:21.091Z,91.22
2022-09-07T02:37:21.072Z,90.56
2022-09-07T02:38:21.078Z,90.36
2022-09-07T02:39:21.055Z,90.46
2022-09-07T02:40:21.067Z,88.24
2022-09-07T02:41:21.048Z,89.21
2022-09-07T02:42:21.048Z,88.70
2022-09-07T02:43:20.998Z,88.60
2022-09-07T02:44:21.013Z,90.32
2022-09-07T02:45:21.030Z,89.31
2022-09-07T02:46:21.097Z,89.51
2022-09-07T02:47:20.966Z,89.61
2022-09-07T02:48:20.981Z,90.01
2022-09-07T02:49:20.948Z,90.82
2022-09-07T02:50:20.995Z,89.86
2022-09-07T02:51:20.950Z,90.06
2022-09-07T02:52:20.929Z,90.46
2022-09-07T02:53:20.939Z,91.06
2022-09-07T02:54:20.915Z,91.37
2022-09-07T02:55:20.908Z,90.77
2022-09-07T02:56:20.872Z,91.06
2022-09-07T02:57:20.882Z,90.77
2022-09-07T02:58:20.852Z,91.57
2022-09-07T02:59:20.847Z,90.77
2022-09-07T03:00:20.835Z,91.41
2022-09-07T03:01:20.911Z,91.31
2022-09-07T03:02:20.885Z,90.61
2022-09-07T03:03:20.853Z,90.50
2022-09-07T03:04:20.784Z,91.31
2022-09-07T03:05:20.815Z,91.31
2022-09-07T03:06:25.923Z,90.70
2022-09-07T03:07:20.778Z,90.41
2022-09-07T03:08:20.751Z,90.91
2022-09-07T03:09:20.741Z,91.41
2022-09-07T03:10:20.738Z,91.61
2022-09-07T03:11:20.724Z,91.51
2022-09-07T03:12:20.716Z,91.91
2022-09-07T03:13:20.712Z,92.02
2022-09-07T03:14:20.678Z,90.81
2022-09-07T03:15:20.679Z,92.12
2022-09-07T03:16:20.705Z,91.71
2022-09-07T03:17:20.656Z,91.51
2022-09-07T03:18:20.665Z,91.91
2022-09-07T03:19:20.638Z,91.91
2022-09-07T03:20:20.631Z,91.76
2022-09-07T03:21:20.638Z,91.35
2022-09-07T03:22:20.610Z,91.35
2022-09-07T03:23:20.634Z,90.95
2022-09-07T03:24:20.584Z,90.95
2022-09-07T03:25:20.610Z,91.46
2022-09-07T03:26:20.550Z,92.06
2022-09-07T03:27:20.595Z,92.06
2022-09-07T03:28:20.571Z,92.16
2022-09-07T03:29:20.530Z,91.46
2022-09-07T03:30:20.507Z,91.05
2022-09-07T03:31:20.589Z,91.66
2022-09-07T03:32:20.491Z,91.66
2022-09-07T03:33:20.503Z,91.35
2022-09-07T03:34:20.475Z,91.55
2022-09-07T03:35:20.471Z,91.15
2022-09-07T03:36:20.456Z,91.55
2022-09-07T03:37:20.465Z,91.66
2022-09-07T03:38:20.430Z,91.86
2022-09-07T03:39:20.434Z,92.36
2022-09-07T03:40:20.422Z,92.26
2022-09-07T03:41:20.431Z,92.16
2022-09-07T03:42:20.387Z,92.16
2022-09-07T03:43:20.402Z,91.46
2022-09-07T03:44:20.402Z,91.46
2022-09-07T03:45:20.666Z,91.55
2022-09-07T03:46:20.522Z,92.10
2022-09-07T03:47:20.374Z,92.00
2022-09-07T03:48:20.324Z,91.39
2022-09-07T03:49:20.373Z,91.90
2022-09-07T03:50:20.303Z,92.10
2022-09-07T03:51:20.310Z,91.70
2022-09-07T03:53:32.618Z,91.80
2022-09-07T03:54:33.102Z,92.50
2022-09-07T03:55:32.331Z,92.30
2022-09-07T03:56:32.339Z,92.21
2022-09-07T03:57:32.351Z,92.91
2022-09-07T03:58:32.487Z,93.21
2022-09-07T03:59:32.320Z,92.91
2022-09-07T04:00:32.277Z,92.61
2022-09-07T04:01:32.427Z,93.12
2022-09-07T04:02:32.675Z,94.02
2022-09-07T04:03:34.007Z,93.12
2022-09-07T04:04:32.260Z,92.65
2022-09-07T04:05:32.227Z,92.96
2022-09-07T04:06:32.229Z,93.16
2022-09-07T04:07:32.245Z,93.40
2022-09-07T04:08:32.435Z,93.60
2022-09-07T04:09:32.221Z,94.31
2022-09-07T04:10:32.191Z,94.21
2022-09-07T04:11:32.172Z,93.91
2022-09-07T04:12:32.184Z,94.01
2022-09-07T04:13:32.148Z,93.91
2022-09-07T04:14:32.177Z,93.71
2022-09-07T04:15:32.130Z,94.01
2022-09-07T04:16:32.290Z,93.71
2022-09-07T04:17:32.115Z,93.81
2022-09-07T04:18:32.281Z,93.81
2022-09-07T04:19:32.097Z,94.11
2022-09-07T04:20:32.111Z,94.01
2022-09-07T04:21:32.058Z,94.15
2022-09-07T04:22:32.087Z,94.36
2022-09-07T04:23:32.096Z,94.26
2022-09-07T04:24:32.060Z,94.46
2022-09-07T04:25:32.282Z,94.26
2022-09-07T04:26:32.041Z,94.56
2022-09-07T04:27:32.009Z,94.36
2022-09-07T04:28:32.190Z,94.56
2022-09-07T04:29:31.971Z,94.56
2022-09-07T04:30:32.354Z,94.26
2022-09-07T04:31:31.970Z,94.36
2022-09-07T04:32:31.965Z,94.36
2022-09-07T04:33:31.969Z,94.26
2022-09-07T04:34:32.029Z,94.66
2022-09-07T04:35:31.936Z,94.36
2022-09-07T04:36:31.945Z,94.86
2022-09-07T04:37:32.271Z,94.36
2022-09-07T04:38:32.236Z,94.76
2022-09-07T04:40:32.678Z,94.46
2022-09-07T04:41:49.698Z,94.56
2022-09-07T04:42:49.686Z,94.56
2022-09-07T04:43:49.624Z,94.56
2022-09-07T04:44:49.637Z,94.76
2022-09-07T04:45:49.646Z,94.76
2022-09-07T04:46:49.599Z,94.76
2022-09-07T04:47:49.831Z,94.71
2022-09-07T04:48:49.583Z,94.91
2022-09-07T04:49:49.570Z,94.96
2022-09-07T04:50:49.565Z,94.91
2022-09-07T04:51:49.587Z,94.96
2022-09-07T04:52:49.559Z,94.96
2022-09-07T04:53:49.764Z,95.17
2022-09-07T04:54:49.542Z,95.07
2022-09-07T04:55:49.505Z,95.07
2022-09-07T04:56:50.428Z,95.37
2022-09-07T04:57:49.470Z,95.07
2022-09-07T04:58:49.550Z,95.27
2022-09-07T04:59:50.127Z,95.07
2022-09-07T05:00:49.520Z,95.07
2022-09-07T05:01:49.447Z,95.07
2022-09-07T05:02:49.585Z,95.07
2022-09-07T05:03:49.445Z,95.27
2022-09-07T05:04:49.448Z,95.27
2022-09-07T05:05:49.415Z,95.37
2022-09-07T05:06:49.652Z,95.37
2022-09-07T05:07:49.409Z,95.17
2022-09-07T05:08:49.383Z,94.96
2022-09-07T05:09:49.357Z,94.76
2022-09-07T05:16:19.909Z,94.86
2022-09-07T05:17:06.579Z,94.96
2022-09-07T05:18:06.707Z,95.07
2022-09-07T05:19:13.950Z,94.86
2022-09-07T05:20:06.514Z,94.56
2022-09-07T05:21:06.777Z,94.56
2022-09-07T05:22:06.680Z,94.56
2022-09-07T05:23:06.479Z,95.27
2022-09-07T05:24:06.530Z,94.96
2022-09-07T05:25:06.466Z,95.37
2022-09-07T05:26:06.451Z,95.27
2022-09-07T05:27:06.446Z,95.57
2022-09-07T05:28:06.455Z,95.02
2022-09-07T05:30:07.058Z,94.51
2022-09-07T05:31:21.737Z,94.82
2022-09-07T05:32:06.392Z,95.22
2022-09-07T05:33:06.387Z,94.92
2022-09-07T05:35:06.401Z,95.53
2022-09-07T05:36:06.353Z,95.73
2022-09-07T05:37:07.096Z,95.83
2022-09-07T05:38:06.321Z,96.29
2022-09-07T05:39:06.334Z,96.09
2022-09-07T05:40:06.488Z,95.78
2022-09-07T05:41:06.494Z,96.19
2022-09-07T05:42:06.337Z,96.29
2022-09-07T05:45:06.248Z,96.09
2022-09-07T05:46:06.381Z,95.58
2022-09-07T05:47:06.213Z,96.19
2022-09-07T05:48:06.223Z,95.68
2022-09-07T05:49:06.213Z,95.74
2022-09-07T05:50:06.201Z,95.94
2022-09-07T05:51:06.199Z,95.84
2022-09-07T05:52:06.191Z,95.54
2022-09-07T05:53:06.180Z,95.03
2022-09-07T05:54:06.295Z,94.83
2022-09-07T05:55:26.181Z,94.23
2022-09-07T05:56:07.185Z,93.92
2022-09-07T05:57:06.427Z,94.23
2022-09-07T05:58:06.292Z,95.03
2022-09-07T05:59:06.139Z,95.14
2022-09-07T06:00:06.118Z,94.12
2022-09-07T06:01:06.074Z,94.02
2022-09-07T06:02:06.190Z,94.53
2022-09-07T06:03:06.198Z,94.73
2022-09-07T06:04:06.080Z,94.73
2022-09-07T06:05:06.058Z,95.23
2022-09-07T06:06:06.340Z,94.89
2022-09-07T06:07:22.738Z,94.18
2022-09-07T06:08:06.060Z,94.59
2022-09-07T06:09:06.219Z,94.38
2022-09-07T06:11:06.728Z,94.38
2022-09-07T06:12:06.174Z,94.18
2022-09-07T06:13:05.970Z,95.09
2022-09-07T06:14:06.238Z,95.09
2022-09-07T06:15:05.970Z,95.19
2022-09-07T06:16:06.073Z,94.79
2022-09-07T06:17:05.913Z,94.68
2022-09-07T06:18:05.945Z,95.19
2022-09-07T06:19:05.962Z,95.49
2022-09-07T06:20:05.997Z,95.29
2022-09-07T06:21:05.869Z,95.49
2022-09-07T06:22:06.843Z,95.29
2022-09-07T06:23:05.893Z,95.49
2022-09-07T06:24:05.858Z,95.75
2022-09-07T06:25:07.909Z,95.25
2022-09-07T06:37:30.088Z,95.25
2022-09-07T06:38:31.964Z,95.04
2022-09-07T06:39:31.128Z,94.74
2022-09-07T06:40:31.004Z,94.94
2022-09-07T06:42:31.033Z,95.61
2022-09-07T06:43:31.063Z,95.20
2022-09-07T06:44:30.979Z,95.00
2022-09-07T06:45:31.007Z,95.40
2022-09-07T06:47:30.972Z,94.80
2022-09-07T06:48:31.104Z,95.00
2022-09-07T06:49:30.908Z,94.90
2022-09-07T06:50:30.952Z,94.64
2022-09-07T06:51:31.013Z,94.64
2022-09-07T06:53:36.754Z,95.04
2022-09-07T06:55:30.868Z,95.14
2022-09-07T06:56:30.835Z,95.95
2022-09-07T06:57:30.854Z,95.75
2022-09-07T06:58:30.952Z,95.35
2022-09-07T06:59:30.913Z,95.95
2022-09-07T07:00:30.827Z,95.65
2022-09-07T07:01:30.870Z,95.75
2022-09-07T07:02:30.765Z,95.55
2022-09-07T07:03:30.855Z,95.95
2022-09-07T07:04:30.792Z,95.75
2022-09-07T07:05:30.749Z,95.75
2022-09-07T07:06:30.772Z,95.85
2022-09-07T07:07:30.753Z,96.36
2022-09-07T07:08:30.916Z,96.25
2022-09-07T07:09:30.706Z,95.75
2022-09-07T07:10:30.713Z,95.55
2022-09-07T07:11:30.670Z,96.15
2022-09-07T07:15:10.963Z,95.85
2022-09-07T07:16:09.534Z,94.64
2022-09-07T07:17:09.700Z,95.04
2022-09-07T07:18:20.832Z,95.25
2022-09-07T07:19:09.413Z,95.04
2022-09-07T07:20:09.375Z,95.25
2022-09-07T07:21:09.360Z,95.14
2022-09-07T07:22:45.670Z,95.14
2022-09-07T07:23:09.461Z,95.25
2022-09-07T07:24:09.527Z,95.95
2022-09-07T07:25:09.310Z,95.25
2022-09-07T07:26:09.510Z,95.95
2022-09-07T07:27:09.471Z,95.75
2022-09-07T07:29:09.279Z,96.11
2022-09-07T07:30:09.279Z,96.51
2022-09-07T07:31:12.949Z,96.01
2022-09-07T07:32:09.247Z,96.31
2022-09-07T07:33:09.304Z,96.61
2022-09-07T07:34:09.303Z,96.71
2022-09-07T07:35:09.244Z,96.41
2022-09-07T07:36:09.222Z,96.61
2022-09-07T07:37:09.221Z,96.81
2022-09-07T07:40:17.931Z,96.11
2022-09-07T07:42:09.121Z,96.41
2022-09-07T07:43:09.135Z,96.41
2022-09-07T07:44:09.132Z,96.71
2022-09-07T07:46:09.187Z,97.22
2022-09-07T07:47:09.093Z,97.22
2022-09-07T07:48:09.211Z,96.92
2022-09-07T07:49:09.065Z,96.92
2022-09-07T07:51:12.069Z,97.47
2022-09-07T07:54:09.014Z,97.27
2022-09-07T07:56:09.090Z,97.27
2022-09-07T07:57:09.012Z,97.07
2022-09-07T07:58:09.065Z,97.27
2022-09-07T07:59:12.564Z,96.16
2022-09-07T08:00:08.975Z,96.16
2022-09-07T08:01:08.989Z,96.97
2022-09-07T08:02:09.207Z,96.47
2022-09-07T08:03:08.932Z,96.36
2022-09-07T08:04:08.979Z,96.77
2022-09-07T08:05:08.902Z,96.72
2022-09-07T08:06:08.890Z,95.81
2022-09-07T08:07:11.054Z,96.62
2022-09-07T08:08:08.862Z,96.32
2022-09-07T08:09:08.899Z,96.22
2022-09-07T08:10:08.849Z,96.01
2022-09-07T08:11:08.838Z,95.87
2022-09-07T08:12:08.832Z,95.87
2022-09-07T08:13:08.842Z,95.77
2022-09-07T08:14:08.810Z,95.97
2022-09-07T08:15:08.829Z,96.17
2022-09-07T08:16:08.870Z,95.93
2022-09-07T08:17:08.790Z,95.62
2022-09-07T08:18:08.804Z,94.52
2022-09-07T08:19:08.770Z,93.91
2022-09-07T08:20:08.752Z,93.87
2022-09-07T08:21:08.752Z,93.57
2022-09-07T08:22:08.751Z,94.78
2022-09-07T08:23:08.749Z,94.57
2022-09-07T08:24:08.733Z,93.62
2022-09-07T08:25:08.687Z,93.82
2022-09-07T08:26:08.698Z,94.23
2022-09-07T08:27:08.669Z,94.33
2022-09-07T08:28:08.666Z,93.98
2022-09-07T08:29:08.659Z,93.78
2022-09-07T08:30:08.674Z,93.48
2022-09-07T08:31:08.736Z,93.38
2022-09-07T08:32:08.637Z,92.03
2022-09-07T08:33:08.607Z,93.03
2022-09-07T08:34:08.631Z,92.89
2022-09-07T08:35:08.629Z,92.29
2022-09-07T08:36:08.578Z,90.64
2022-09-07T08:37:08.598Z,90.59
2022-09-07T08:38:08.551Z,90.89
2022-09-07T08:39:08.684Z,91.15
2022-09-07T08:40:08.615Z,90.75
2022-09-07T08:41:08.544Z,88.10
2022-09-07T08:42:08.514Z,90.16
2022-09-07T08:43:08.546Z,89.46
2022-09-07T08:44:08.500Z,89.16
2022-09-07T08:45:08.519Z,86.91
2022-09-07T08:46:08.514Z,86.47
2022-09-07T08:47:08.476Z,87.03
2022-09-07T08:48:08.460Z,84.89
2022-09-07T08:49:08.468Z,84.71
2022-09-07T08:50:17.227Z,80.21
2022-09-07T08:51:08.428Z,79.28
2022-09-07T08:52:08.405Z,82.14
2022-09-07T08:53:09.505Z,82.73
2022-09-07T08:54:08.596Z,81.67
2022-09-07T08:55:08.642Z,77.82
2022-09-07T08:56:08.377Z,81.51
2022-09-07T08:57:25.242Z,79.02
2022-09-07T08:58:18.019Z,74.58
2022-09-07T08:59:09.139Z,73.12
2022-09-07T09:00:08.379Z,76.12
2022-09-07T09:04:16.670Z,73.92
2022-09-07T09:05:17.598Z,75.98
2022-09-07T09:06:08.784Z,78.38
2022-09-07T09:07:09.291Z,76.92
2022-09-07T09:08:08.318Z,74.98
2022-09-07T09:09:08.738Z,74.52
2022-09-07T09:10:08.257Z,76.38
2022-09-07T09:11:08.232Z,74.25
2022-09-07T09:12:08.218Z,75.61
2022-09-07T09:13:08.262Z,74.11
2022-09-07T09:14:08.206Z,76.37
2022-09-07T09:15:08.227Z,72.08
2022-09-07T09:16:08.305Z,70.95
2022-09-07T09:17:08.200Z,70.12
2022-09-07T09:18:10.108Z,68.70
2022-09-07T09:19:12.671Z,68.04
2022-09-07T09:20:08.175Z,66.21
2022-09-07T09:21:08.455Z,64.59
2022-09-07T09:22:08.132Z,63.86
2022-09-07T09:23:08.120Z,63.64
2022-09-07T09:24:08.108Z,62.02
2022-09-07T09:25:08.204Z,61.79
2022-09-07T09:26:08.086Z,61.16
2022-09-07T09:27:08.083Z,60.67
2022-09-07T09:28:08.065Z,60.77
2022-09-07T09:29:08.073Z,61.39
2022-09-07T09:30:08.043Z,61.62
2022-09-07T09:31:08.099Z,65.39
2022-09-07T09:32:08.014Z,64.27
2022-09-07T09:33:08.674Z,61.99
2022-09-07T09:34:08.080Z,63.48
2022-09-07T09:35:07.990Z,60.50
2022-09-07T09:36:07.986Z,60.57
2022-09-07T09:37:09.092Z,60.83
2022-09-07T09:38:08.206Z,60.71
2022-09-07T09:39:08.055Z,62.95
2022-09-07T09:40:07.982Z,61.36
2022-09-07T09:41:08.075Z,61.23
2022-09-07T09:42:07.958Z,59.42
2022-09-07T09:43:08.167Z,59.99
2022-09-07T09:44:07.947Z,57.68
2022-09-07T09:45:07.954Z,58.05
2022-09-07T09:46:15.123Z,57.56
2022-09-07T09:48:07.904Z,56.24
2022-09-07T09:49:07.912Z,57.82
2022-09-07T09:50:08.135Z,55.05
2022-09-07T09:53:07.835Z,55.82
2022-09-07T09:54:07.840Z,55.43
2022-09-07T09:56:07.808Z,54.80
2022-09-07T09:57:07.817Z,56.88
2022-09-07T10:00:11.725Z,54.58
2022-09-07T10:01:24.642Z,55.66
2022-09-07T10:04:12.684Z,57.31
2022-09-07T10:05:07.798Z,59.81
2022-09-07T10:06:07.740Z,59.18
2022-09-07T10:07:07.720Z,59.74
2022-09-07T10:08:07.702Z,61.15
2022-09-07T10:09:07.912Z,62.50
2022-09-07T10:10:07.688Z,64.82
2022-09-07T10:11:07.701Z,65.05
2022-09-07T10:12:08.417Z,65.35
2022-09-07T10:13:07.655Z,65.05
2022-09-07T10:14:07.682Z,69.92
2022-09-07T10:15:07.646Z,69.13
2022-09-07T10:16:07.671Z,63.66
2022-09-07T10:17:07.656Z,65.25
2022-09-07T10:18:07.595Z,62.04
2022-09-07T10:19:07.631Z,61.64
2022-09-07T10:20:07.746Z,65.31
2022-09-07T10:21:07.741Z,63.43
2022-09-07T10:24:07.860Z,63.26
2022-09-07T10:24:13.022Z,64.69
2022-09-07T10:25:12.703Z,65.78
2022-09-07T10:26:12.735Z,60.33
2022-09-07T10:27:12.673Z,60.93
2022-09-07T10:28:12.664Z,65.41
2022-09-07T10:29:13.082Z,62.72
2022-09-07T10:30:12.650Z,61.69
2022-09-07T10:31:15.400Z,61.69
2022-09-07T10:32:12.630Z,69.56
2022-09-07T10:33:12.752Z,70.06
2022-09-07T10:34:27.948Z,69.96
2022-09-07T10:35:12.634Z,65.28
2022-09-07T10:36:12.556Z,63.85
2022-09-07T10:37:12.812Z,64.45
2022-09-07T10:38:12.545Z,61.87
2022-09-07T10:39:12.573Z,68.13
2022-09-07T10:40:12.632Z,65.64
2022-09-07T10:41:15.119Z,61.67
2022-09-07T10:42:12.543Z,67.54
2022-09-07T10:43:27.830Z,61.94
2022-09-07T10:44:12.547Z,62.83
2022-09-07T10:45:12.844Z,63.46
2022-09-07T10:46:12.551Z,63.23
2022-09-07T10:47:13.672Z,66.41
2022-09-07T10:48:12.465Z,64.92
2022-09-07T10:49:12.832Z,65.02
2022-09-07T10:50:27.917Z,63.49
2022-09-07T10:51:14.299Z,62.21
2022-09-07T10:52:12.454Z,61.14
2022-09-07T10:53:36.901Z,62.53
2022-09-07T10:55:14.226Z,61.54
2022-09-07T10:56:12.421Z,60.94
2022-09-07T10:57:12.431Z,61.34
2022-09-07T10:58:12.369Z,60.35
2022-09-07T10:59:12.688Z,59.45
2022-09-07T11:00:12.735Z,60.94
2022-09-07T11:01:12.367Z,61.94
2022-09-07T11:02:12.404Z,60.71
2022-09-07T11:03:28.120Z,61.61
2022-09-07T11:04:12.351Z,61.91
2022-09-07T11:05:19.875Z,60.52
2022-09-07T11:06:12.571Z,60.61
2022-09-07T11:07:15.458Z,60.31
2022-09-07T11:08:13.229Z,58.62
2022-09-07T11:09:20.024Z,64.03
2022-09-07T11:10:12.243Z,58.16
2022-09-07T11:11:12.216Z,62.04
2022-09-07T11:12:12.337Z,59.05
2022-09-07T11:13:15.234Z,60.25
2022-09-07T11:14:13.727Z,59.35
2022-09-07T11:15:12.285Z,59.55
2022-09-07T11:16:50.405Z,60.55
2022-09-07T11:17:44.105Z,59.25
2022-09-07T11:18:12.207Z,60.27
2022-09-07T11:19:36.128Z,59.58
2022-09-07T11:22:25.631Z,64.88
2022-09-07T11:23:26.358Z,63.09
2022-09-07T11:24:26.326Z,60.90
2022-09-07T11:25:32.810Z,63.69
2022-09-07T11:26:25.537Z,62.23
2022-09-07T11:27:25.560Z,60.24
2022-09-07T11:28:25.686Z,59.74
2022-09-07T11:29:32.676Z,60.33
2022-09-07T11:30:37.481Z,65.31
2022-09-07T11:31:25.571Z,66.11
2022-09-07T11:32:25.497Z,66.11
2022-09-07T11:33:26.006Z,60.43
2022-09-07T11:34:26.225Z,59.34
2022-09-07T11:35:25.501Z,60.90
2022-09-07T11:36:25.977Z,62.89
2022-09-07T11:37:26.143Z,59.81
2022-09-07T11:38:24.839Z,60.30
2022-09-07T11:39:31.300Z,63.49
2022-09-07T11:40:25.403Z,59.81
2022-09-07T11:41:25.685Z,62.29
2022-09-07T11:44:47.846Z,57.09
2022-09-07T11:45:48.797Z,63.16
2022-09-07T11:46:48.761Z,60.08
2022-09-07T11:47:48.763Z,58.98
2022-09-07T11:48:48.706Z,58.78
2022-09-07T11:49:52.607Z,57.39
2022-09-07T11:50:49.057Z,57.19
2022-09-07T11:51:53.644Z,55.90
2022-09-07T11:52:53.552Z,56.59
2022-09-07T11:53:49.619Z,60.38
2022-09-07T11:57:55.438Z,56.10
2022-09-07T11:58:53.043Z,56.10
2022-09-07T11:59:53.047Z,55.40
2022-09-07T12:01:23.734Z,59.18
2022-09-07T12:01:53.050Z,61.07
2022-09-07T12:02:59.700Z,62.26
2022-09-07T12:04:01.102Z,56.70
2022-09-07T12:04:58.818Z,59.08
2022-09-07T12:05:53.004Z,59.08
2022-09-07T12:06:52.984Z,57.59
2022-09-07T12:10:25.384Z,55.10
2022-09-07T12:11:07.039Z,55.00
2022-09-07T12:12:07.022Z,62.86
2022-09-07T12:13:07.013Z,62.16
2022-09-07T12:14:07.001Z,58.09
2022-09-07T12:15:06.986Z,57.99
2022-09-07T12:16:07.074Z,57.99
2022-09-07T12:17:06.963Z,60.74
2022-09-07T12:18:06.957Z,58.56
2022-09-07T12:19:06.934Z,55.87
2022-09-07T12:20:06.927Z,57.26
2022-09-07T12:21:06.942Z,58.75
2022-09-07T12:22:06.914Z,57.46
2022-09-07T12:23:06.888Z,56.67
2022-09-07T12:24:06.905Z,57.04
2022-09-07T12:25:06.883Z,54.75
2022-09-07T12:26:06.889Z,53.96
2022-09-07T12:27:06.844Z,58.83
2022-09-07T12:28:06.857Z,59.22
2022-09-07T12:29:07.015Z,57.73
2022-09-07T12:30:06.860Z,55.15
2022-09-07T12:31:06.994Z,54.33
2022-09-07T12:32:53.375Z,53.14
2022-09-07T12:33:06.852Z,52.04
2022-09-07T12:34:06.796Z,53.33
2022-09-07T12:35:06.771Z,52.94
2022-09-07T12:36:06.786Z,54.13
2022-09-07T12:37:11.649Z,53.93
2022-09-07T12:38:06.762Z,54.72
2022-09-07T12:39:06.742Z,55.32
2022-09-07T12:40:06.801Z,56.21
2022-09-07T12:41:06.761Z,54.82
2022-09-07T12:43:09.821Z,54.23
2022-09-07T12:44:06.699Z,54.93
2022-09-07T12:45:06.669Z,53.53
2022-09-07T12:46:06.766Z,52.61
2022-09-07T12:47:06.645Z,53.41
2022-09-07T12:48:06.662Z,53.51
2022-09-07T12:49:06.646Z,54.90
2022-09-07T12:50:06.870Z,54.33
2022-09-07T12:51:06.637Z,52.64
2022-09-07T12:52:15.129Z,54.13
2022-09-07T12:54:28.362Z,52.64
2022-09-07T12:55:29.163Z,57.90
2022-09-07T12:56:19.611Z,53.23
2022-09-07T12:57:34.932Z,55.22
2022-09-07T13:01:29.659Z,55.91
2022-09-07T13:02:12.120Z,55.82
2022-09-07T13:04:12.627Z,55.29
2022-09-07T13:05:11.735Z,54.30
2022-09-07T13:06:15.709Z,53.11
2022-09-07T13:07:20.136Z,53.91
2022-09-07T13:08:11.661Z,52.42
2022-09-07T13:09:11.653Z,52.31
2022-09-07T13:10:11.667Z,52.31
2022-09-07T13:13:16.161Z,52.81
2022-09-07T13:14:10.718Z,54.70
2022-09-07T13:15:38.206Z,51.72
2022-09-07T13:19:57.801Z,51.65
2022-09-07T13:20:58.541Z,56.32
2022-09-07T13:21:58.501Z,54.13
2022-09-07T13:22:58.508Z,53.53
2022-09-07T13:23:58.637Z,51.95
2022-09-07T13:24:58.512Z,53.63
2022-09-07T13:26:07.051Z,52.74
2022-09-07T13:26:57.498Z,62.30
2022-09-07T13:33:07.891Z,59.69
2022-09-07T13:33:14.742Z,55.22
2022-09-07T13:34:03.328Z,51.84
2022-09-07T13:35:03.252Z,56.02
2022-09-07T13:36:03.265Z,62.18
2022-09-07T13:37:03.265Z,61.88
2022-09-07T13:38:04.093Z,54.93
2022-09-07T13:39:03.319Z,53.53
2022-09-07T13:40:03.266Z,54.72
2022-09-07T13:41:03.214Z,51.75
2022-09-07T13:42:03.201Z,52.74
2022-09-07T13:43:03.163Z,52.84
2022-09-07T13:46:12.084Z,53.44
2022-09-07T13:46:24.772Z,55.42
2022-09-07T13:47:17.013Z,59.49
2022-09-07T13:48:17.020Z,58.80
2022-09-07T13:49:16.934Z,53.73
2022-09-07T13:51:31.738Z,52.54
2022-09-07T13:51:44.227Z,49.96
2022-09-07T13:52:36.881Z,49.07
2022-09-07T13:55:25.602Z,54.95
2022-09-07T13:56:19.583Z,52.07
2022-09-07T13:57:19.412Z,52.47
2022-09-07T13:58:19.404Z,52.86
2022-09-07T13:59:19.994Z,55.35
2022-09-07T14:00:19.351Z,57.83
2022-09-07T14:01:19.384Z,59.03
2022-09-07T14:02:19.353Z,59.72
2022-09-07T14:03:19.325Z,57.24
2022-09-07T14:04:19.300Z,54.97
2022-09-07T14:05:19.286Z,53.69
2022-09-07T14:06:19.299Z,53.09
2022-09-07T14:07:19.269Z,57.96
2022-09-07T14:08:19.267Z,59.65
2022-09-07T14:09:19.242Z,60.35
2022-09-07T14:10:19.239Z,61.74
2022-09-07T14:11:19.257Z,61.44
2022-09-07T14:12:19.217Z,64.03
2022-09-07T14:13:19.233Z,62.23
2022-09-07T14:14:19.190Z,63.53
2022-09-07T14:15:19.198Z,64.12
2022-09-07T14:20:39.199Z,62.93
2022-09-07T14:20:44.025Z,64.59